createdAt,value
2022-12-14T00:01:28.249Z,2.05
2022-12-14T00:06:25.556Z,1.77
2022-12-14T00:08:55.404Z,2.22
2022-12-14T00:11:22.643Z,2.03
2022-12-14T00:14:00.103Z,1.45
2022-12-14T00:16:30.055Z,2.15
2022-12-14T00:18:58.523Z,1.85
2022-12-14T00:21:25.972Z,1.98
2022-12-14T00:23:54.334Z,1.52
2022-12-14T00:26:24.103Z,3.08
2022-12-14T00:28:53.016Z,2.08
2022-12-14T00:31:21.895Z,2.60
2022-12-14T00:33:50.385Z,2.75
2022-12-14T00:36:17.787Z,1.67
2022-12-14T00:38:45.037Z,2.80
2022-12-14T00:41:12.619Z,1.83
2022-12-14T00:43:39.841Z,4.00
2022-12-14T00:46:07.514Z,2.55
2022-12-14T00:48:34.416Z,3.33
2022-12-14T00:51:01.385Z,2.60
2022-12-14T00:53:28.310Z,2.42
2022-12-14T00:55:55.048Z,3.62
2022-12-14T00:58:23.782Z,2.03
2022-12-14T01:01:02.883Z,2.15
2022-12-14T01:03:29.882Z,1.60
2022-12-14T01:05:57.443Z,2.33
2022-12-14T01:08:24.644Z,3.10
2022-12-14T01:10:52.236Z,2.78
2022-12-14T01:13:19.435Z,3.12
2022-12-14T01:15:46.946Z,2.40
2022-12-14T01:18:13.854Z,2.30
2022-12-14T01:20:40.877Z,2.85
2022-12-14T01:23:07.547Z,1.95
2022-12-14T01:25:34.356Z,2.28
2022-12-14T01:28:01.266Z,2.28
2022-12-14T01:30:27.903Z,1.55
2022-12-14T01:32:54.483Z,1.48
2022-12-14T01:35:21.477Z,3.58
2022-12-14T01:37:48.923Z,3.42
2022-12-14T01:40:16.347Z,1.83
2022-12-14T01:42:43.550Z,2.62
2022-12-14T01:45:18.475Z,2.95
2022-12-14T01:47:50.946Z,2.47
2022-12-14T01:52:55.240Z,2.95
2022-12-14T01:55:27.481Z,3.30
2022-12-14T01:58:00.138Z,2.00
2022-12-14T02:00:27.000Z,0.73
2022-12-14T02:03:14.445Z,2.53
2022-12-14T02:05:46.155Z,1.05
2022-12-14T02:08:14.440Z,3.20
2022-12-14T02:10:41.449Z,2.58
2022-12-14T02:13:19.443Z,2.25
2022-12-14T02:15:47.324Z,1.50
2022-12-14T02:18:21.473Z,3.00
2022-12-14T02:21:06.033Z,2.92
2022-12-14T02:24:09.351Z,1.45
2022-12-14T02:27:04.557Z,1.77
2022-12-14T02:29:46.097Z,1.58
2022-12-14T02:32:30.941Z,2.50
2022-12-14T02:35:11.711Z,1.90
2022-12-14T02:38:13.601Z,1.42
2022-12-14T02:40:55.731Z,2.75
2022-12-14T02:43:32.503Z,3.05
2022-12-14T02:46:24.036Z,3.30
2022-12-14T02:49:15.548Z,2.50
2022-12-14T02:52:02.786Z,1.98
2022-12-14T02:54:34.701Z,1.52
2022-12-14T02:57:11.303Z,3.00
2022-12-14T02:59:38.375Z,2.28
2022-12-14T03:02:06.337Z,2.70
2022-12-14T03:04:47.420Z,1.55
2022-12-14T03:07:32.583Z,3.40
2022-12-14T03:10:22.365Z,2.65
2022-12-14T03:13:01.773Z,2.05
2022-12-14T03:15:29.922Z,1.48
2022-12-14T03:18:02.776Z,2.28
2022-12-14T03:20:32.532Z,2.40
2022-12-14T03:23:12.292Z,2.03
2022-12-14T03:25:44.522Z,1.42
2022-12-14T03:28:18.230Z,1.50
2022-12-14T03:31:06.012Z,1.02
2022-12-14T03:33:36.288Z,2.15
2022-12-14T03:36:19.675Z,1.92
2022-12-14T03:38:50.965Z,0.82
2022-12-14T03:41:43.803Z,2.03
2022-12-14T03:44:24.981Z,1.15
2022-12-14T03:47:16.391Z,1.85
2022-12-14T03:49:43.188Z,1.97
2022-12-14T03:52:51.207Z,1.33
2022-12-14T03:55:23.881Z,2.65
2022-12-14T03:58:10.420Z,2.05
2022-12-14T04:00:54.873Z,1.52
2022-12-14T04:03:43.686Z,2.10
2022-12-14T04:06:36.842Z,1.00
2022-12-14T04:09:22.356Z,1.73
2022-12-14T04:12:20.115Z,1.87
2022-12-14T04:15:13.133Z,2.25
2022-12-14T04:18:01.001Z,1.40
2022-12-14T04:20:33.126Z,2.50
2022-12-14T04:23:07.448Z,2.05
2022-12-14T04:25:57.034Z,1.48
2022-12-14T04:28:53.177Z,2.20
2022-12-14T04:31:23.362Z,1.50
2022-12-14T04:33:59.459Z,1.62
2022-12-14T04:36:36.263Z,1.50
2022-12-14T04:39:08.789Z,2.12
2022-12-14T04:41:41.117Z,2.03
2022-12-14T04:46:44.791Z,1.30
2022-12-14T04:49:23.386Z,1.05
2022-12-14T04:52:05.012Z,3.10
2022-12-14T04:54:45.905Z,1.60
2022-12-14T04:57:34.298Z,1.83
2022-12-14T05:00:01.867Z,2.35
2022-12-14T05:02:50.781Z,2.17
2022-12-14T05:05:42.552Z,2.33
2022-12-14T05:08:42.037Z,2.47
2022-12-14T05:11:52.167Z,1.42
2022-12-14T05:14:17.432Z,2.55
2022-12-14T05:16:44.432Z,1.65
2022-12-14T05:19:16.175Z,2.17
2022-12-14T05:21:48.962Z,2.85
2022-12-14T05:24:17.183Z,2.75
2022-12-14T05:26:44.355Z,1.87
2022-12-14T05:29:11.855Z,2.62
2022-12-14T05:31:39.657Z,2.55
2022-12-14T05:34:06.887Z,3.22
2022-12-14T05:36:33.792Z,2.50
2022-12-14T05:39:00.931Z,1.40
2022-12-14T05:41:27.612Z,2.72
2022-12-14T05:43:54.319Z,2.00
2022-12-14T05:46:21.313Z,1.55
2022-12-14T05:48:49.597Z,2.12
2022-12-14T05:51:16.932Z,3.28
2022-12-14T05:53:44.255Z,3.65
2022-12-14T05:56:11.451Z,1.52
2022-12-14T05:58:38.841Z,3.37
2022-12-14T06:01:12.635Z,2.10
2022-12-14T06:03:42.577Z,1.90
2022-12-14T06:06:11.747Z,1.95
2022-12-14T06:08:41.429Z,2.62
2022-12-14T06:11:11.152Z,2.20
2022-12-14T06:13:39.328Z,2.55
2022-12-14T06:16:17.909Z,2.47
2022-12-14T06:18:50.634Z,1.35
2022-12-14T06:21:19.632Z,2.40
2022-12-14T06:23:46.799Z,2.78
2022-12-14T06:26:15.203Z,1.70
2022-12-14T06:28:41.994Z,3.17
2022-12-14T06:31:15.921Z,2.80
2022-12-14T06:33:42.679Z,1.85
2022-12-14T06:36:17.934Z,2.95
2022-12-14T06:38:44.887Z,3.15
2022-12-14T06:41:12.692Z,1.40
2022-12-14T06:43:39.384Z,4.07
2022-12-14T06:46:15.194Z,4.22
2022-12-14T06:48:43.386Z,3.95
2022-12-14T06:51:10.416Z,3.70
2022-12-14T06:53:37.100Z,4.25
2022-12-14T06:56:12.514Z,2.58
2022-12-14T06:58:39.235Z,4.15
2022-12-14T07:01:13.259Z,3.05
2022-12-14T07:03:42.753Z,2.20
2022-12-14T07:06:10.392Z,2.30
2022-12-14T07:08:38.895Z,3.80
2022-12-14T07:11:11.649Z,2.80
2022-12-14T07:13:39.480Z,3.25
2022-12-14T07:16:07.642Z,3.17
2022-12-14T07:18:34.622Z,4.18
2022-12-14T07:21:07.054Z,3.25
2022-12-14T07:26:07.089Z,3.28
2022-12-14T07:28:35.591Z,2.95
2022-12-14T07:31:02.988Z,3.10
2022-12-14T07:33:30.346Z,4.25
2022-12-14T07:36:03.271Z,3.45
2022-12-14T07:38:30.413Z,3.42
2022-12-14T07:41:12.275Z,3.15
2022-12-14T07:46:09.571Z,3.67
2022-12-14T07:48:36.504Z,3.30
2022-12-14T07:51:09.288Z,3.20
2022-12-14T07:53:37.348Z,4.10
2022-12-14T07:56:10.830Z,2.90
2022-12-14T07:58:37.797Z,4.95
2022-12-14T08:01:18.214Z,3.80
2022-12-14T08:03:54.338Z,4.87
2022-12-14T08:06:23.749Z,3.60
2022-12-14T08:08:51.606Z,4.25
2022-12-14T08:11:19.013Z,4.47
2022-12-14T08:13:46.838Z,3.67
2022-12-14T08:16:16.290Z,3.83
2022-12-14T08:18:46.080Z,3.58
2022-12-14T08:21:15.390Z,4.93
2022-12-14T08:23:42.017Z,2.90
2022-12-14T08:26:09.016Z,2.83
2022-12-14T08:28:36.812Z,3.28
2022-12-14T08:31:09.291Z,6.43
2022-12-14T08:33:37.574Z,4.80
2022-12-14T08:36:22.310Z,3.85
2022-12-14T08:38:54.611Z,5.07
2022-12-14T08:41:22.087Z,3.10
2022-12-14T08:43:58.605Z,4.43
2022-12-14T08:46:27.033Z,3.83
2022-12-14T08:48:55.385Z,3.15
2022-12-14T08:51:23.390Z,4.68
2022-12-14T08:53:52.253Z,4.75
2022-12-14T08:56:22.276Z,2.35
2022-12-14T08:58:49.221Z,3.70
2022-12-14T09:01:21.157Z,2.80
2022-12-14T09:03:48.847Z,2.72
2022-12-14T09:06:19.558Z,2.47
2022-12-14T09:08:49.680Z,3.67
2022-12-14T09:11:19.624Z,3.80
2022-12-14T09:13:46.999Z,3.37
2022-12-14T09:16:22.175Z,3.15
2022-12-14T09:18:50.360Z,3.25
2022-12-14T09:21:18.102Z,3.75
2022-12-14T09:23:45.509Z,3.78
2022-12-14T09:26:17.737Z,3.28
2022-12-14T09:28:53.919Z,4.55
2022-12-14T09:31:23.157Z,3.95
2022-12-14T09:33:50.298Z,3.30
2022-12-14T09:36:19.404Z,3.08
2022-12-14T09:38:51.025Z,2.85
2022-12-14T09:44:31.074Z,3.20
2022-12-14T09:47:17.926Z,2.62
2022-12-14T09:49:47.467Z,3.22
2022-12-14T09:52:21.341Z,2.90
2022-12-14T09:54:49.732Z,3.28
2022-12-14T09:57:33.327Z,2.80
2022-12-14T10:00:00.562Z,2.80
2022-12-14T10:02:47.456Z,2.00
2022-12-14T10:05:47.079Z,3.15
2022-12-14T10:08:21.505Z,2.75
2022-12-14T10:10:51.335Z,3.53
2022-12-14T10:13:55.647Z,1.58
2022-12-14T10:16:36.385Z,3.28
2022-12-14T10:19:27.140Z,2.62
2022-12-14T10:22:16.792Z,1.77
2022-12-14T10:24:48.279Z,2.10
2022-12-14T10:27:23.340Z,1.90
2022-12-14T10:29:54.678Z,2.25
2022-12-14T10:32:36.831Z,2.37
2022-12-14T10:35:19.508Z,1.60
2022-12-14T10:38:00.516Z,2.83
2022-12-14T10:40:34.082Z,2.78
2022-12-14T10:43:27.491Z,1.27
2022-12-14T10:48:45.285Z,2.28
2022-12-14T10:51:18.033Z,1.83
2022-12-14T10:53:52.001Z,2.28
2022-12-14T10:56:26.200Z,1.62
2022-12-14T10:59:20.618Z,2.62
2022-12-14T11:02:20.636Z,2.17
2022-12-14T11:04:52.187Z,1.83
2022-12-14T11:07:24.651Z,3.00
2022-12-14T11:09:52.704Z,2.20
2022-12-14T11:12:24.902Z,2.67
2022-12-14T11:14:55.387Z,2.00
2022-12-14T11:17:43.440Z,1.62
2022-12-14T11:20:22.972Z,2.92
2022-12-14T11:22:55.937Z,2.53
2022-12-14T11:25:41.384Z,2.20
2022-12-14T11:28:41.337Z,2.35
2022-12-14T11:31:11.593Z,1.70
2022-12-14T11:33:40.637Z,2.58
2022-12-14T11:36:08.996Z,2.05
2022-12-14T11:38:36.728Z,2.30
2022-12-14T11:41:10.567Z,1.70
2022-12-14T11:43:41.236Z,1.70
2022-12-14T11:46:08.027Z,2.08
2022-12-14T11:48:38.409Z,3.12
2022-12-14T11:51:13.731Z,2.42
2022-12-14T11:53:41.505Z,1.30
2022-12-14T11:56:16.277Z,1.33
2022-12-14T11:58:53.444Z,1.87
2022-12-14T12:01:26.724Z,1.73
2022-12-14T12:06:29.966Z,3.62
2022-12-14T12:09:02.581Z,2.12
2022-12-14T12:11:34.944Z,2.00
2022-12-14T12:14:13.633Z,2.30
2022-12-14T12:16:43.149Z,2.22
2022-12-14T12:19:15.461Z,2.87
2022-12-14T12:21:44.798Z,2.47
2022-12-14T12:24:20.935Z,2.20
2022-12-14T12:26:51.194Z,2.97
2022-12-14T12:29:27.909Z,2.12
2022-12-14T12:32:00.226Z,3.45
2022-12-14T12:34:44.878Z,2.00
2022-12-14T12:37:27.173Z,1.40
2022-12-14T12:40:00.671Z,4.12
2022-12-14T12:42:50.001Z,2.42
2022-12-14T12:45:24.650Z,2.10
2022-12-14T12:48:03.065Z,1.85
2022-12-14T12:50:35.276Z,1.75
2022-12-14T12:53:17.940Z,2.17
2022-12-14T12:55:50.121Z,2.45
2022-12-14T13:00:55.757Z,1.37
2022-12-14T13:03:32.375Z,1.80
2022-12-14T13:06:17.719Z,2.50
2022-12-14T13:08:49.809Z,1.92
2022-12-14T13:11:26.445Z,1.95
2022-12-14T13:13:58.156Z,2.75
2022-12-14T13:16:43.134Z,2.62
2022-12-14T13:22:15.003Z,1.45
2022-12-14T13:24:47.953Z,1.48
2022-12-14T13:27:20.980Z,1.87
2022-12-14T13:30:18.696Z,1.55
2022-12-14T17:01:02.561Z,3.45
2022-12-14T17:03:31.959Z,2.45
2022-12-14T17:06:02.210Z,4.37
2022-12-14T17:08:29.463Z,3.03
2022-12-14T17:10:56.965Z,5.97
2022-12-14T17:13:23.651Z,4.53
2022-12-14T17:16:04.663Z,3.67
2022-12-14T17:18:36.337Z,4.47
2022-12-14T17:21:05.401Z,4.15
2022-12-14T17:23:34.578Z,3.92
2022-12-14T17:26:01.370Z,4.18
2022-12-14T17:28:30.751Z,4.07
2022-12-14T17:30:59.410Z,3.58
2022-12-14T17:33:28.061Z,3.92
2022-12-14T17:35:55.786Z,4.00
2022-12-14T17:38:23.122Z,5.15
2022-12-14T17:40:51.406Z,5.45
2022-12-14T17:43:22.597Z,4.00
2022-12-14T17:45:49.356Z,3.28
2022-12-14T17:48:17.587Z,5.65
2022-12-14T17:50:47.607Z,3.00
2022-12-14T17:53:15.048Z,4.75
2022-12-14T17:55:42.033Z,4.62
2022-12-14T17:58:12.522Z,5.37
2022-12-14T18:00:59.048Z,4.53
2022-12-14T18:03:27.808Z,5.00
2022-12-14T18:05:54.973Z,4.85
2022-12-14T18:08:23.116Z,5.55
2022-12-14T18:11:02.119Z,7.10
2022-12-14T18:13:31.384Z,4.78
2022-12-14T18:16:00.135Z,5.57
2022-12-14T18:18:27.775Z,5.20
2022-12-14T18:21:00.566Z,2.83
2022-12-14T18:23:29.376Z,4.47
2022-12-14T18:25:59.324Z,3.42
2022-12-14T18:28:26.419Z,6.95
2022-12-14T18:30:57.020Z,5.07
2022-12-14T18:33:26.231Z,7.07
2022-12-14T18:35:55.662Z,4.35
2022-12-14T18:38:23.000Z,4.00
2022-12-14T18:40:52.486Z,5.87
2022-12-14T18:43:26.378Z,5.93
2022-12-14T18:45:55.695Z,4.22
2022-12-14T18:48:24.617Z,4.43
2022-12-14T18:50:53.758Z,4.40
2022-12-14T18:53:22.382Z,3.40
2022-12-14T18:55:49.975Z,4.28
2022-12-14T18:58:25.581Z,3.50
2022-12-14T19:00:55.325Z,2.90
2022-12-14T19:03:23.573Z,4.20
2022-12-14T19:05:50.280Z,3.05
2022-12-14T19:08:18.125Z,4.65
2022-12-14T19:10:47.951Z,4.62
2022-12-14T19:13:24.987Z,4.65
2022-12-14T19:15:53.935Z,5.50
2022-12-14T19:18:20.705Z,4.72
2022-12-14T19:20:49.673Z,2.53
2022-12-14T19:23:18.276Z,5.37
2022-12-14T19:25:45.873Z,5.60
2022-12-14T19:28:31.293Z,6.03
2022-12-14T19:30:59.597Z,3.60
2022-12-14T19:33:28.672Z,4.20
2022-12-14T19:35:56.219Z,4.60
2022-12-14T19:38:23.240Z,6.87
2022-12-14T19:41:02.033Z,4.43
2022-12-14T19:43:29.944Z,6.18
2022-12-14T19:45:57.137Z,4.72
2022-12-14T19:48:27.217Z,4.93
2022-12-14T19:50:55.546Z,6.30
2022-12-14T19:53:23.995Z,7.05
2022-12-14T19:55:52.724Z,4.60
2022-12-14T19:58:22.095Z,5.50
2022-12-14T20:00:50.046Z,6.62
2022-12-14T20:03:17.621Z,6.53
2022-12-14T20:05:51.828Z,7.18
2022-12-14T20:08:19.678Z,6.68
2022-12-14T20:10:46.813Z,4.75
2022-12-14T20:13:13.682Z,5.40
2022-12-14T20:15:47.252Z,5.97
2022-12-14T20:18:16.020Z,6.82
2022-12-14T20:20:43.756Z,5.93
2022-12-14T20:23:10.776Z,3.83
2022-12-14T20:25:37.530Z,4.30
2022-12-14T20:28:04.850Z,3.20
2022-12-14T20:30:31.685Z,5.82
2022-12-14T20:32:58.400Z,3.78
2022-12-14T20:35:25.453Z,4.25
2022-12-14T20:37:55.783Z,3.45
2022-12-14T20:40:22.661Z,5.00
2022-12-14T20:42:49.690Z,4.50
2022-12-14T20:45:16.452Z,5.53
2022-12-14T20:47:43.073Z,5.60
2022-12-14T20:50:10.467Z,4.12
2022-12-14T20:52:37.202Z,4.05
2022-12-14T20:55:04.664Z,4.50
2022-12-14T20:57:33.191Z,3.45
2022-12-14T21:00:00.168Z,5.47
2022-12-14T21:02:27.075Z,3.75
2022-12-14T21:04:54.093Z,5.32
2022-12-14T21:07:25.877Z,4.85
2022-12-14T21:09:53.165Z,5.93
2022-12-14T21:12:23.003Z,6.70
2022-12-14T21:14:55.141Z,5.50
2022-12-14T21:17:26.234Z,5.25
2022-12-14T21:19:53.488Z,4.47
2022-12-14T21:22:23.651Z,5.22
2022-12-14T21:25:07.156Z,5.57
2022-12-14T21:27:38.354Z,4.85
2022-12-14T21:30:08.974Z,5.47
2022-12-14T21:32:37.059Z,6.07
2022-12-14T21:35:04.340Z,5.32
2022-12-14T21:37:31.412Z,6.28
2022-12-14T21:39:58.220Z,6.28
2022-12-14T21:42:25.671Z,3.47
2022-12-14T21:44:53.937Z,6.30
2022-12-14T21:47:26.351Z,4.90
2022-12-14T21:49:54.224Z,5.00
2022-12-14T21:52:23.152Z,5.80
2022-12-14T21:54:50.220Z,4.93
2022-12-14T21:57:41.403Z,7.07
2022-12-14T22:00:10.279Z,4.25
2022-12-14T22:02:39.219Z,4.10
2022-12-14T22:05:06.667Z,3.22
2022-12-14T22:07:34.180Z,5.22
2022-12-14T22:10:01.138Z,4.40
2022-12-14T22:12:28.471Z,3.47
2022-12-14T22:14:55.437Z,3.65
2022-12-14T22:17:22.190Z,3.70
2022-12-14T22:19:50.944Z,4.72
2022-12-14T22:22:17.804Z,5.45
2022-12-14T22:24:47.577Z,4.18
2022-12-14T22:27:14.946Z,3.37
2022-12-14T22:29:41.787Z,4.35
2022-12-14T22:32:11.221Z,3.87
2022-12-14T22:34:38.173Z,4.28
2022-12-14T22:37:04.956Z,5.90
2022-12-14T22:39:31.623Z,4.07
2022-12-14T22:41:58.526Z,4.10
2022-12-14T22:44:25.258Z,3.33
